createdAt,value
2019-02-06T00:01:57.947Z,25.67
2019-02-06T00:04:27.986Z,26.30
2019-02-06T00:06:57.787Z,26.30
2019-02-06T00:09:27.519Z,24.20
2019-02-06T00:11:57.377Z,24.40
2019-02-06T00:14:27.226Z,19.97
2019-02-06T00:16:57.094Z,24.70
2019-02-06T00:19:29.053Z,23.93
2019-02-06T00:22:01.126Z,23.10
2019-02-06T00:24:30.872Z,18.73
2019-02-06T00:27:00.658Z,20.73
2019-02-06T00:29:30.547Z,18.93
2019-02-06T00:32:00.710Z,16.33
2019-02-06T00:34:30.893Z,14.30
2019-02-06T00:37:00.655Z,14.47
2019-02-06T00:39:30.423Z,19.73
2019-02-06T00:42:03.118Z,15.20
2019-02-06T00:44:33.448Z,19.97
2019-02-06T00:47:06.320Z,14.13
2019-02-06T00:49:37.314Z,15.60
2019-02-06T00:52:07.167Z,13.30
2019-02-06T00:54:44.419Z,14.23
2019-02-06T00:57:17.192Z,13.97
2019-02-06T00:59:47.036Z,16.93
2019-02-06T01:02:19.883Z,16.93
2019-02-06T01:04:51.166Z,12.77
2019-02-06T01:07:20.906Z,13.50
2019-02-06T01:09:51.772Z,11.80
2019-02-06T01:12:22.523Z,18.33
2019-02-06T01:14:53.612Z,13.50
2019-02-06T01:17:25.925Z,14.03
2019-02-06T01:19:55.423Z,12.83
2019-02-06T01:22:27.823Z,9.73
2019-02-06T01:24:57.858Z,10.90
2019-02-06T01:27:27.803Z,12.63
2019-02-06T01:29:57.829Z,8.37
2019-02-06T01:32:27.575Z,12.07
2019-02-06T01:34:57.290Z,11.13
2019-02-06T01:37:27.161Z,11.27
2019-02-06T01:39:58.562Z,9.50
2019-02-06T01:42:28.393Z,11.67
2019-02-06T01:44:58.267Z,11.27
2019-02-06T01:47:28.378Z,8.13
2019-02-06T01:49:58.133Z,12.67
2019-02-06T01:52:29.037Z,11.83
2019-02-06T01:54:58.801Z,9.80
2019-02-06T01:57:28.723Z,10.67
2019-02-06T01:59:58.576Z,9.57
2019-02-06T02:02:28.373Z,8.30
2019-02-06T02:04:59.425Z,9.43
2019-02-06T02:07:32.266Z,7.93
2019-02-06T02:10:02.204Z,10.23
2019-02-06T02:12:34.511Z,9.97
2019-02-06T02:15:05.500Z,10.33
2019-02-06T02:17:35.252Z,9.93
2019-02-06T02:20:07.367Z,9.47
2019-02-06T02:22:37.100Z,9.67
2019-02-06T02:25:07.667Z,6.80
2019-02-06T02:27:37.779Z,9.40
2019-02-06T02:30:09.374Z,10.07
2019-02-06T02:32:39.127Z,10.87
2019-02-06T02:35:09.496Z,11.10
2019-02-06T02:37:39.325Z,11.00
2019-02-06T02:40:10.147Z,8.47
2019-02-06T02:42:42.798Z,9.80
2019-02-06T02:45:14.450Z,13.17
2019-02-06T02:47:44.645Z,13.87
2019-02-06T02:50:14.645Z,9.00
2019-02-06T02:52:44.800Z,11.07
2019-02-06T02:55:15.051Z,10.80
2019-02-06T02:57:45.300Z,9.47
2019-02-06T03:00:18.248Z,11.93
2019-02-06T03:03:04.815Z,8.67
2019-02-06T03:05:36.284Z,9.50
2019-02-06T03:08:11.027Z,9.70
2019-02-06T03:10:40.791Z,10.03
2019-02-06T03:13:10.536Z,11.87
2019-02-06T03:15:40.551Z,9.47
2019-02-06T03:18:10.259Z,8.07
2019-02-06T03:20:39.995Z,10.47
2019-02-06T03:23:09.823Z,10.90
2019-02-06T03:25:39.541Z,11.97
2019-02-06T03:28:09.236Z,10.13
2019-02-06T03:30:39.086Z,15.10
2019-02-06T03:33:08.836Z,15.50
2019-02-06T03:35:38.603Z,12.60
2019-02-06T03:38:08.469Z,12.50
2019-02-06T03:40:38.575Z,11.73
2019-02-06T03:43:11.408Z,16.87
2019-02-06T03:45:41.156Z,13.30
2019-02-06T03:48:10.867Z,16.33
2019-02-06T03:50:40.592Z,10.77
2019-02-06T03:53:10.445Z,21.73
2019-02-06T03:55:41.431Z,17.17
2019-02-06T03:58:11.164Z,17.27
2019-02-06T04:00:40.941Z,13.37
2019-02-06T04:03:11.327Z,12.70
2019-02-06T04:05:41.134Z,10.27
2019-02-06T04:08:10.979Z,11.00
2019-02-06T04:10:41.190Z,12.13
2019-02-06T04:13:11.176Z,15.43
2019-02-06T04:15:42.522Z,16.43
2019-02-06T04:18:12.221Z,13.43
2019-02-06T04:20:41.945Z,14.93
2019-02-06T04:23:16.587Z,15.07
2019-02-06T04:25:46.556Z,19.53
2019-02-06T04:28:16.516Z,11.93
2019-02-06T04:30:46.521Z,16.67
2019-02-06T04:33:16.245Z,14.07
2019-02-06T04:35:49.047Z,15.83
2019-02-06T04:38:18.911Z,21.50
2019-02-06T04:40:48.665Z,15.67
2019-02-06T04:43:19.293Z,12.30
2019-02-06T04:45:49.566Z,12.90
2019-02-06T04:48:19.353Z,10.57
2019-02-06T04:50:49.120Z,15.03
2019-02-06T04:53:18.830Z,13.80
2019-02-06T04:55:50.389Z,17.23
2019-02-06T04:58:21.364Z,12.43
2019-02-06T05:00:51.182Z,9.53
2019-02-06T05:03:20.984Z,12.10
2019-02-06T05:05:51.493Z,11.57
2019-02-06T05:13:00.264Z,59.60
2019-02-06T05:17:12.040Z,48.23
2019-02-06T05:23:13.950Z,31.00
2019-02-06T05:32:55.177Z,41.70
2019-02-06T05:35:55.594Z,32.03
2019-02-06T05:39:05.467Z,35.70
2019-02-06T05:43:23.773Z,27.40
2019-02-06T05:52:48.866Z,35.07
2019-02-06T05:53:20.887Z,38.27
2019-02-06T05:56:48.079Z,33.73
2019-02-06T05:59:21.514Z,34.00
2019-02-06T06:05:38.556Z,41.17
2019-02-06T06:06:13.668Z,27.93
2019-02-06T06:08:23.575Z,42.33
2019-02-06T06:11:05.341Z,45.67
2019-02-06T06:13:35.115Z,36.07
2019-02-06T06:16:05.098Z,21.27
2019-02-06T06:18:35.185Z,15.97
2019-02-06T06:21:04.904Z,11.93
2019-02-06T06:23:35.269Z,9.47
2019-02-06T06:26:05.142Z,10.97
2019-02-06T06:28:35.285Z,13.77
2019-02-06T06:31:05.029Z,13.30
2019-02-06T06:33:35.395Z,16.37
2019-02-06T06:36:09.795Z,14.47
2019-02-06T06:38:39.479Z,14.37
2019-02-06T06:41:12.240Z,13.83
2019-02-06T06:43:41.969Z,20.50
2019-02-06T06:46:11.989Z,41.60
2019-02-06T06:48:44.764Z,44.53
2019-02-06T06:51:14.471Z,35.30
2019-02-06T06:53:44.455Z,33.77
2019-02-06T06:56:17.131Z,34.37
2019-02-06T06:58:49.374Z,35.50
2019-02-06T07:01:20.611Z,50.30
2019-02-06T07:03:50.460Z,43.37
2019-02-06T07:06:34.224Z,48.33
2019-02-06T07:08:58.747Z,41.17
2019-02-06T07:11:28.454Z,54.90
2019-02-06T07:13:59.309Z,40.47
2019-02-06T07:16:29.564Z,38.57
2019-02-06T07:18:59.374Z,41.07
2019-02-06T07:21:29.020Z,39.10
2019-02-06T07:23:58.963Z,45.90
2019-02-06T07:26:29.089Z,52.80
2019-02-06T07:28:58.931Z,50.60
2019-02-06T07:31:28.828Z,54.37
2019-02-06T07:33:58.779Z,44.17
2019-02-06T07:36:29.679Z,44.23
2019-02-06T07:38:59.458Z,65.77
2019-02-06T07:41:29.444Z,72.30
2019-02-06T07:43:59.501Z,63.50
2019-02-06T07:46:29.316Z,60.17
2019-02-06T07:48:59.052Z,56.10
2019-02-06T07:51:29.344Z,42.80
2019-02-06T07:54:06.835Z,32.10
2019-02-06T07:56:36.590Z,34.77
2019-02-06T07:59:06.613Z,20.50
2019-02-06T08:01:36.543Z,16.70
2019-02-06T08:04:08.380Z,19.60
2019-02-06T08:06:38.337Z,16.33
2019-02-06T08:09:09.920Z,18.30
2019-02-06T08:11:39.881Z,19.13
2019-02-06T08:14:09.632Z,21.93
2019-02-06T08:16:39.420Z,25.57
2019-02-06T08:19:09.286Z,35.03
2019-02-06T08:21:43.134Z,54.97
2019-02-06T08:24:15.030Z,55.70
2019-02-06T08:26:45.279Z,68.77
2019-02-06T08:29:15.189Z,69.33
2019-02-06T08:31:44.975Z,49.90
2019-02-06T08:34:14.786Z,44.57
2019-02-06T08:36:44.775Z,25.57
2019-02-06T08:39:14.521Z,20.33
2019-02-06T08:41:44.256Z,14.87
2019-02-06T08:44:14.082Z,14.20
2019-02-06T08:46:43.903Z,11.13
2019-02-06T08:49:14.769Z,10.17
2019-02-06T08:51:44.700Z,10.67
2019-02-06T08:54:14.513Z,13.37
2019-02-06T08:56:44.465Z,14.43
2019-02-06T08:59:14.255Z,10.40
2019-02-06T09:01:43.988Z,8.90
2019-02-06T09:04:13.839Z,12.37
2019-02-06T09:06:43.664Z,17.73
2019-02-06T09:09:14.035Z,19.83
2019-02-06T09:11:44.261Z,18.47
2019-02-06T09:14:17.379Z,11.20
2019-02-06T09:16:49.966Z,11.90
2019-02-06T09:19:23.141Z,9.23
2019-02-06T09:21:55.162Z,8.97
2019-02-06T09:24:31.035Z,9.53
2019-02-06T09:27:01.116Z,11.50
2019-02-06T09:29:31.028Z,7.43
2019-02-06T09:32:03.179Z,7.97
2019-02-06T09:34:33.301Z,10.57
2019-02-06T09:37:06.126Z,8.83
2019-02-06T09:39:35.884Z,11.30
2019-02-06T09:42:05.759Z,13.27
2019-02-06T09:44:36.098Z,11.97
2019-02-06T09:47:10.973Z,11.60
2019-02-06T09:49:41.653Z,11.17
2019-02-06T09:52:11.786Z,11.23
2019-02-06T09:54:41.903Z,8.60
2019-02-06T09:57:11.640Z,13.40
2019-02-06T09:59:41.414Z,14.80
2019-02-06T10:02:11.251Z,14.67
2019-02-06T10:04:41.339Z,11.13
2019-02-06T10:07:11.220Z,16.33
2019-02-06T10:09:40.976Z,11.80
2019-02-06T10:12:12.008Z,10.63
2019-02-06T10:14:46.853Z,10.93
2019-02-06T10:17:17.011Z,8.27
2019-02-06T10:19:47.125Z,10.17
2019-02-06T10:22:16.909Z,10.37
2019-02-06T10:24:46.872Z,9.87
2019-02-06T10:27:17.103Z,8.50
2019-02-06T10:29:49.455Z,17.43
2019-02-06T10:32:20.929Z,12.23
2019-02-06T10:34:50.768Z,12.87
2019-02-06T10:37:20.930Z,10.20
2019-02-06T10:39:54.235Z,11.80
2019-02-06T10:42:24.078Z,14.27
2019-02-06T10:44:54.104Z,14.63
2019-02-06T10:47:24.033Z,12.50
2019-02-06T10:49:53.870Z,9.00
2019-02-06T10:55:15.102Z,10.63
2019-02-06T10:57:47.014Z,12.07
2019-02-06T11:00:26.171Z,10.60
2019-02-06T11:02:57.440Z,14.60
2019-02-06T11:05:29.562Z,12.27
2019-02-06T11:08:02.655Z,14.73
2019-02-06T11:10:32.423Z,10.30
2019-02-06T11:13:02.245Z,10.30
2019-02-06T11:15:35.255Z,9.40
2019-02-06T11:18:06.146Z,10.53
2019-02-06T11:20:37.064Z,12.30
2019-02-06T11:23:07.732Z,12.10
2019-02-06T11:25:38.395Z,16.93
2019-02-06T11:28:14.833Z,9.87
2019-02-06T11:30:44.863Z,9.27
2019-02-06T11:33:14.698Z,13.20
2019-02-06T11:35:44.638Z,9.23
2019-02-06T11:38:14.703Z,11.00
2019-02-06T11:40:44.580Z,9.07
2019-02-06T11:43:23.864Z,12.03
2019-02-06T11:45:54.066Z,10.33
2019-02-06T11:48:30.063Z,11.53
2019-02-06T11:51:03.099Z,12.20
2019-02-06T11:53:33.452Z,11.87
2019-02-06T11:56:03.410Z,13.47
2019-02-06T11:58:33.200Z,13.30
2019-02-06T12:01:31.285Z,13.27
2019-02-06T12:04:06.999Z,14.07
2019-02-06T12:06:38.544Z,23.50
2019-02-06T12:09:16.724Z,17.03
2019-02-06T12:11:52.449Z,17.30
2019-02-06T12:14:24.029Z,11.30
2019-02-06T12:16:55.822Z,15.43
2019-02-06T12:19:29.858Z,17.40
2019-02-06T12:22:00.352Z,14.57
2019-02-06T12:24:41.024Z,12.33
2019-02-06T12:27:11.631Z,24.37
2019-02-06T12:29:48.416Z,12.80
2019-02-06T12:32:20.444Z,19.40
2019-02-06T12:34:50.474Z,22.93
2019-02-06T12:37:28.057Z,9.87
2019-02-06T12:40:01.988Z,15.43
2019-02-06T12:42:37.539Z,13.83
2019-02-06T12:45:11.179Z,17.70
2019-02-06T12:47:48.618Z,22.83
2019-02-06T12:50:21.628Z,20.33
2019-02-06T12:52:51.417Z,16.73
2019-02-06T12:55:27.748Z,14.20
2019-02-06T12:58:00.488Z,12.83
2019-02-06T13:00:35.095Z,14.70
2019-02-06T13:03:08.797Z,10.70
2019-02-06T13:05:41.343Z,15.23
2019-02-06T13:08:11.689Z,11.57
2019-02-06T13:10:42.993Z,15.37
2019-02-06T13:13:14.293Z,10.40
2019-02-06T13:15:47.220Z,12.57
2019-02-06T13:18:15.916Z,14.37
2019-02-06T13:20:46.296Z,14.30
2019-02-06T13:23:16.470Z,15.03
2019-02-06T13:25:46.367Z,15.97
2019-02-06T13:28:16.445Z,10.90
2019-02-06T13:30:50.179Z,19.53
2019-02-06T13:33:20.099Z,17.43
2019-02-06T13:35:58.535Z,15.23
2019-02-06T13:38:28.405Z,13.63
2019-02-06T13:40:58.294Z,17.27
2019-02-06T13:43:28.523Z,13.60
2019-02-06T13:45:58.373Z,15.90
2019-02-06T13:48:28.227Z,20.77
2019-02-06T13:50:57.959Z,13.27
2019-02-06T13:53:29.933Z,17.60
2019-02-06T13:56:02.878Z,11.47
2019-02-06T13:58:40.911Z,15.03
2019-02-06T14:01:10.769Z,14.00
2019-02-06T14:03:42.963Z,14.70
2019-02-06T14:06:15.891Z,12.43
2019-02-06T14:08:49.390Z,16.57
2019-02-06T14:11:19.185Z,12.00
2019-02-06T14:13:48.922Z,16.20
2019-02-06T14:16:19.537Z,14.50
2019-02-06T14:18:49.859Z,12.07
2019-02-06T14:21:22.847Z,13.90
2019-02-06T14:24:24.613Z,10.83
2019-02-06T14:27:28.519Z,11.30
2019-02-06T14:30:51.356Z,19.33
2019-02-06T14:34:08.053Z,12.77
2019-02-06T14:37:20.477Z,13.37
2019-02-06T14:40:18.143Z,14.93
2019-02-06T14:43:48.467Z,10.57
2019-02-06T14:46:48.728Z,12.90
2019-02-06T14:50:08.745Z,12.43
2019-02-06T14:53:07.324Z,12.23
2019-02-06T14:55:58.659Z,11.00
2019-02-06T14:59:08.411Z,12.37
2019-02-06T15:02:21.305Z,10.43
2019-02-06T15:05:25.813Z,8.97
2019-02-06T15:08:44.967Z,10.57
2019-02-06T15:11:56.330Z,12.97
2019-02-06T15:14:59.330Z,11.70
2019-02-06T15:18:18.238Z,12.70
2019-02-06T15:21:19.576Z,10.93
2019-02-06T15:24:34.064Z,11.80
2019-02-06T15:27:29.583Z,12.73
2019-02-06T15:30:34.184Z,9.07
2019-02-06T15:33:20.320Z,15.37
2019-02-06T15:36:23.002Z,10.83
2019-02-06T15:43:21.242Z,10.23
2019-02-06T15:46:40.119Z,7.93
2019-02-06T15:49:52.088Z,10.03
2019-02-06T15:53:27.841Z,10.70
2019-02-06T15:56:53.342Z,10.73
2019-02-06T16:00:22.393Z,9.40
2019-02-06T16:03:22.302Z,10.47
2019-02-06T16:07:08.579Z,7.37
2019-02-06T16:10:27.452Z,9.27
2019-02-06T16:13:49.378Z,7.73
2019-02-06T16:17:01.276Z,8.50
2019-02-06T16:20:05.471Z,7.47
2019-02-06T16:23:04.029Z,8.80
2019-02-06T16:26:23.357Z,6.43
2019-02-06T16:29:22.347Z,7.20
2019-02-06T16:32:32.551Z,8.13
2019-02-06T16:35:33.477Z,7.10
2019-02-06T16:38:45.199Z,9.30
2019-02-06T16:41:56.848Z,8.27
2019-02-06T16:44:59.613Z,8.47
2019-02-06T16:48:00.765Z,8.43
2019-02-06T16:50:57.956Z,9.77
2019-02-06T16:54:06.892Z,10.03
2019-02-06T16:57:05.167Z,12.03
2019-02-06T17:00:32.046Z,9.33
2019-02-06T17:03:49.691Z,14.93
2019-02-06T17:06:45.894Z,21.47
2019-02-06T17:09:42.188Z,17.67
2019-02-06T17:12:30.500Z,15.50
2019-02-06T17:15:59.203Z,9.77
2019-02-06T17:19:26.578Z,13.47
2019-02-06T17:22:22.198Z,8.90
2019-02-06T17:29:25.314Z,19.37
2019-02-06T17:32:40.344Z,21.17
2019-02-06T17:35:48.542Z,15.80
2019-02-06T17:38:55.449Z,22.00
2019-02-06T17:42:19.138Z,34.77
2019-02-06T17:45:34.648Z,23.73
2019-02-06T17:48:55.818Z,19.87
2019-02-06T17:52:29.076Z,16.70
2019-02-06T17:55:23.743Z,22.73
2019-02-06T17:57:58.570Z,20.63
2019-02-06T18:00:51.538Z,16.63
2019-02-06T18:03:28.947Z,17.80
2019-02-06T18:06:06.452Z,15.57
2019-02-06T18:08:43.177Z,27.60
2019-02-06T18:11:16.498Z,17.03
2019-02-06T19:48:27.474Z,13.00
2019-02-06T20:04:29.034Z,22.63
2019-02-06T20:07:19.459Z,9.67
2019-02-06T20:12:39.858Z,14.43
2019-02-06T20:14:00.367Z,11.80
2019-02-06T20:16:35.297Z,19.43
2019-02-06T20:19:16.590Z,15.43
2019-02-06T20:21:48.612Z,12.87
2019-02-06T20:24:25.877Z,9.30
2019-02-06T20:27:00.555Z,9.07
2019-02-06T20:29:31.786Z,12.13
2019-02-06T20:32:04.444Z,9.70
2019-02-06T20:35:54.917Z,13.30
2019-02-06T20:37:39.051Z,11.87
2019-02-06T20:41:00.620Z,8.53
2019-02-06T20:43:22.119Z,10.03
2019-02-06T20:45:52.086Z,8.60
2019-02-06T20:48:28.232Z,8.13
2019-02-06T20:51:12.778Z,8.27
2019-02-06T20:54:07.767Z,10.13
2019-02-06T20:56:43.249Z,8.27
2019-02-06T20:59:14.455Z,11.87
2019-02-06T21:01:48.776Z,9.73
2019-02-06T21:04:21.857Z,9.57
2019-02-06T21:06:53.644Z,11.67
2019-02-06T21:09:22.787Z,9.80
2019-02-06T21:12:02.899Z,8.63
2019-02-06T21:14:33.307Z,10.80
2019-02-06T21:17:03.773Z,11.47
2019-02-06T21:20:00.352Z,10.73
2019-02-06T21:22:38.524Z,12.70
2019-02-06T21:25:10.279Z,14.13
2019-02-06T21:27:41.672Z,24.27
2019-02-06T21:30:18.426Z,23.07
2019-02-06T21:32:53.075Z,24.47
2019-02-06T21:35:25.970Z,43.87
2019-02-06T21:37:56.168Z,35.20
2019-02-06T21:40:28.253Z,20.47
2019-02-06T21:42:58.426Z,19.97
2019-02-06T21:45:29.310Z,15.00
2019-02-06T21:47:59.227Z,13.70
2019-02-06T21:50:29.345Z,14.33
2019-02-06T21:53:13.787Z,11.93
2019-02-06T21:55:43.771Z,10.70
2019-02-06T21:58:13.582Z,11.17
2019-02-06T22:00:44.200Z,16.07
2019-02-06T22:03:17.209Z,12.73
2019-02-06T22:05:47.590Z,12.47
2019-02-06T22:08:17.565Z,13.30
2019-02-06T22:10:50.473Z,10.73
2019-02-06T22:13:23.127Z,12.77
2019-02-06T22:15:54.757Z,10.93
2019-02-06T22:18:32.111Z,15.30
2019-02-06T22:21:01.956Z,13.43
2019-02-06T22:23:35.476Z,10.50
2019-02-06T22:26:05.527Z,14.13
2019-02-06T22:28:35.437Z,10.07
2019-02-06T22:31:06.547Z,10.50
2019-02-06T22:33:36.511Z,11.83
2019-02-06T22:36:08.909Z,14.57
2019-02-06T22:38:38.786Z,15.13
2019-02-06T22:41:20.131Z,12.10
2019-02-06T22:43:44.627Z,11.47
2019-02-06T22:46:19.025Z,13.03
2019-02-06T22:48:50.056Z,13.60
2019-02-06T22:51:21.000Z,16.07
2019-02-06T22:53:53.792Z,13.47
2019-02-06T22:56:27.257Z,15.83
2019-02-06T22:59:08.917Z,13.90
